sensor_id;sensor_type;location;lat;lon;timestamp;temperature;humidity
76878;DHT22;65843;50.692;12.844;2023-06-22T00:00:45;18.90;82.40
76878;DHT22;65843;50.692;12.844;2023-06-22T00:01:47;19.00;82.40
76878;DHT22;65843;50.692;12.844;2023-06-22T00:02:48;18.90;82.40
76878;DHT22;65843;50.692;12.844;2023-06-22T00:03:49;18.90;82.30
76878;DHT22;65843;50.692;12.844;2023-06-22T00:04:50;18.90;82.20
76878;DHT22;65843;50.692;12.844;2023-06-22T00:05:51;18.90;82.10
76878;DHT22;65843;50.692;12.844;2023-06-22T00:06:52;18.90;81.90
76878;DHT22;65843;50.692;12.844;2023-06-22T00:07:52;18.90;81.80
76878;DHT22;65843;50.692;12.844;2023-06-22T00:08:53;18.90;81.70
76878;DHT22;65843;50.692;12.844;2023-06-22T00:09:54;18.90;81.30
76878;DHT22;65843;50.692;12.844;2023-06-22T00:10:55;18.90;81.50
76878;DHT22;65843;50.692;12.844;2023-06-22T00:11:56;18.90;81.60
76878;DHT22;65843;50.692;12.844;2023-06-22T00:12:57;18.90;81.70
76878;DHT22;65843;50.692;12.844;2023-06-22T00:13:57;18.90;81.80
76878;DHT22;65843;50.692;12.844;2023-06-22T00:14:58;18.90;81.70
76878;DHT22;65843;50.692;12.844;2023-06-22T00:15:59;18.90;81.80
76878;DHT22;65843;50.692;12.844;2023-06-22T00:17:00;18.90;81.80
76878;DHT22;65843;50.692;12.844;2023-06-22T00:18:01;18.90;81.90
76878;DHT22;65843;50.692;12.844;2023-06-22T00:19:03;18.90;81.90
76878;DHT22;65843;50.692;12.844;2023-06-22T00:20:04;18.90;82.00
76878;DHT22;65843;50.692;12.844;2023-06-22T00:21:06;18.90;82.00
76878;DHT22;65843;50.692;12.844;2023-06-22T00:22:07;18.90;82.00
76878;DHT22;65843;50.692;12.844;2023-06-22T00:23:08;18.90;82.10
76878;DHT22;65843;50.692;12.844;2023-06-22T00:24:09;18.90;82.10
76878;DHT22;65843;50.692;12.844;2023-06-22T00:25:10;18.90;82.10
76878;DHT22;65843;50.692;12.844;2023-06-22T00:26:11;18.90;82.20
76878;DHT22;65843;50.692;12.844;2023-06-22T00:27:12;18.90;82.10
76878;DHT22;65843;50.692;12.844;2023-06-22T00:28:13;18.90;82.20
76878;DHT22;65843;50.692;12.844;2023-06-22T00:29:14;18.90;82.20
76878;DHT22;65843;50.692;12.844;2023-06-22T00:30:18;18.90;82.20
76878;DHT22;65843;50.692;12.844;2023-06-22T00:31:19;18.90;82.30
76878;DHT22;65843;50.692;12.844;2023-06-22T00:32:20;18.90;82.30
76878;DHT22;65843;50.692;12.844;2023-06-22T00:33:21;18.90;82.30
76878;DHT22;65843;50.692;12.844;2023-06-22T00:34:21;18.90;82.20
76878;DHT22;65843;50.692;12.844;2023-06-22T00:35:22;18.90;82.10
76878;DHT22;65843;50.692;12.844;2023-06-22T00:36:23;18.90;82.10
76878;DHT22;65843;50.692;12.844;2023-06-22T00:37:25;18.90;82.00
76878;DHT22;65843;50.692;12.844;2023-06-22T00:38:26;18.90;81.80
76878;DHT22;65843;50.692;12.844;2023-06-22T00:39:27;18.90;81.60
76878;DHT22;65843;50.692;12.844;2023-06-22T00:40:28;18.90;81.50
76878;DHT22;65843;50.692;12.844;2023-06-22T00:41:29;18.90;81.40
76878;DHT22;65843;50.692;12.844;2023-06-22T00:42:30;18.90;81.30
76878;DHT22;65843;50.692;12.844;2023-06-22T00:43:31;18.90;81.20
76878;DHT22;65843;50.692;12.844;2023-06-22T00:44:32;18.90;81.20
76878;DHT22;65843;50.692;12.844;2023-06-22T00:45:33;18.90;81.30
76878;DHT22;65843;50.692;12.844;2023-06-22T00:46:33;18.90;81.30
76878;DHT22;65843;50.692;12.844;2023-06-22T00:47:34;18.90;81.30
76878;DHT22;65843;50.692;12.844;2023-06-22T00:48:36;18.90;81.30
76878;DHT22;65843;50.692;12.844;2023-06-22T00:49:37;18.90;81.50
76878;DHT22;65843;50.692;12.844;2023-06-22T00:50:39;18.90;81.40
76878;DHT22;65843;50.692;12.844;2023-06-22T00:51:40;18.90;81.50
76878;DHT22;65843;50.692;12.844;2023-06-22T00:52:49;18.90;81.50
76878;DHT22;65843;50.692;12.844;2023-06-22T00:53:51;18.90;81.50
76878;DHT22;65843;50.692;12.844;2023-06-22T00:54:53;18.90;81.50
76878;DHT22;65843;50.692;12.844;2023-06-22T00:55:55;18.90;81.50
76878;DHT22;65843;50.692;12.844;2023-06-22T00:56:56;18.90;81.40
76878;DHT22;65843;50.692;12.844;2023-06-22T00:57:58;18.90;81.50
76878;DHT22;65843;50.692;12.844;2023-06-22T00:58:58;18.90;81.50
76878;DHT22;65843;50.692;12.844;2023-06-22T01:00:00;18.90;81.50
76878;DHT22;65843;50.692;12.844;2023-06-22T01:01:01;18.90;81.60
76878;DHT22;65843;50.692;12.844;2023-06-22T01:02:03;18.90;81.50
76878;DHT22;65843;50.692;12.844;2023-06-22T01:03:04;18.90;81.70
76878;DHT22;65843;50.692;12.844;2023-06-22T01:04:04;18.90;81.70
76878;DHT22;65843;50.692;12.844;2023-06-22T01:05:06;18.90;81.80
76878;DHT22;65843;50.692;12.844;2023-06-22T01:06:08;18.90;81.80
76878;DHT22;65843;50.692;12.844;2023-06-22T01:07:18;18.90;81.80
76878;DHT22;65843;50.692;12.844;2023-06-22T01:09:45;18.90;81.70
76878;DHT22;65843;50.692;12.844;2023-06-22T01:10:55;18.90;81.70
76878;DHT22;65843;50.692;12.844;2023-06-22T01:12:00;18.90;81.50
76878;DHT22;65843;50.692;12.844;2023-06-22T01:13:03;18.90;81.30
76878;DHT22;65843;50.692;12.844;2023-06-22T01:14:15;18.90;81.10
76878;DHT22;65843;50.692;12.844;2023-06-22T01:15:29;18.90;81.00
76878;DHT22;65843;50.692;12.844;2023-06-22T01:16:34;18.90;80.90
76878;DHT22;65843;50.692;12.844;2023-06-22T01:17:36;18.80;80.70
76878;DHT22;65843;50.692;12.844;2023-06-22T01:18:37;18.80;80.80
76878;DHT22;65843;50.692;12.844;2023-06-22T01:19:43;18.90;80.80
76878;DHT22;65843;50.692;12.844;2023-06-22T01:20:47;18.80;80.70
76878;DHT22;65843;50.692;12.844;2023-06-22T01:21:48;18.80;80.70
76878;DHT22;65843;50.692;12.844;2023-06-22T01:23:07;18.80;80.70
76878;DHT22;65843;50.692;12.844;2023-06-22T01:24:18;18.90;80.70
76878;DHT22;65843;50.692;12.844;2023-06-22T01:25:26;18.80;80.80
76878;DHT22;65843;50.692;12.844;2023-06-22T01:27:42;18.80;80.90
76878;DHT22;65843;50.692;12.844;2023-06-22T01:28:52;18.80;80.90
76878;DHT22;65843;50.692;12.844;2023-06-22T01:29:55;18.80;81.00
76878;DHT22;65843;50.692;12.844;2023-06-22T01:31:00;18.80;80.90
76878;DHT22;65843;50.692;12.844;2023-06-22T01:32:06;18.80;81.00
76878;DHT22;65843;50.692;12.844;2023-06-22T01:33:08;18.80;81.00
76878;DHT22;65843;50.692;12.844;2023-06-22T01:34:11;18.80;81.00
76878;DHT22;65843;50.692;12.844;2023-06-22T01:35:13;18.80;80.90
76878;DHT22;65843;50.692;12.844;2023-06-22T01:36:15;18.80;80.90
76878;DHT22;65843;50.692;12.844;2023-06-22T01:37:17;18.80;80.90
76878;DHT22;65843;50.692;12.844;2023-06-22T01:38:18;18.80;81.00
76878;DHT22;65843;50.692;12.844;2023-06-22T01:39:19;18.80;81.00
76878;DHT22;65843;50.692;12.844;2023-06-22T01:40:20;18.80;81.10
76878;DHT22;65843;50.692;12.844;2023-06-22T01:41:21;18.80;81.00
76878;DHT22;65843;50.692;12.844;2023-06-22T01:42:23;18.80;80.90
76878;DHT22;65843;50.692;12.844;2023-06-22T01:43:27;18.80;80.80
76878;DHT22;65843;50.692;12.844;2023-06-22T01:44:29;18.80;80.80
76878;DHT22;65843;50.692;12.844;2023-06-22T01:45:30;18.80;80.70
76878;DHT22;65843;50.692;12.844;2023-06-22T01:46:31;18.80;80.50
76878;DHT22;65843;50.692;12.844;2023-06-22T01:47:32;18.80;80.40
76878;DHT22;65843;50.692;12.844;2023-06-22T01:48:34;18.80;80.40
76878;DHT22;65843;50.692;12.844;2023-06-22T01:49:35;18.80;80.40
76878;DHT22;65843;50.692;12.844;2023-06-22T01:50:36;18.80;80.20
76878;DHT22;65843;50.692;12.844;2023-06-22T01:51:37;18.80;80.20
76878;DHT22;65843;50.692;12.844;2023-06-22T01:52:38;18.80;80.30
76878;DHT22;65843;50.692;12.844;2023-06-22T01:53:39;18.80;80.30
76878;DHT22;65843;50.692;12.844;2023-06-22T01:54:40;18.80;80.40
76878;DHT22;65843;50.692;12.844;2023-06-22T01:55:41;18.80;80.40
76878;DHT22;65843;50.692;12.844;2023-06-22T01:56:41;18.80;80.40
76878;DHT22;65843;50.692;12.844;2023-06-22T01:57:42;18.80;80.50
76878;DHT22;65843;50.692;12.844;2023-06-22T01:59:48;18.80;80.50
76878;DHT22;65843;50.692;12.844;2023-06-22T02:00:14;18.80;80.60
76878;DHT22;65843;50.692;12.844;2023-06-22T02:01:20;18.80;80.70
76878;DHT22;65843;50.692;12.844;2023-06-22T02:02:23;18.80;80.70
76878;DHT22;65843;50.692;12.844;2023-06-22T02:03:31;18.80;80.70
76878;DHT22;65843;50.692;12.844;2023-06-22T02:04:41;18.80;80.70
76878;DHT22;65843;50.692;12.844;2023-06-22T02:05:47;18.80;80.70
76878;DHT22;65843;50.692;12.844;2023-06-22T02:06:49;18.80;80.80
76878;DHT22;65843;50.692;12.844;2023-06-22T02:09:09;18.80;80.50
76878;DHT22;65843;50.692;12.844;2023-06-22T02:10:11;18.80;80.50
76878;DHT22;65843;50.692;12.844;2023-06-22T02:11:15;18.80;80.50
76878;DHT22;65843;50.692;12.844;2023-06-22T02:12:18;18.80;80.50
76878;DHT22;65843;50.692;12.844;2023-06-22T02:13:19;18.80;80.60
76878;DHT22;65843;50.692;12.844;2023-06-22T02:14:20;18.80;80.60
76878;DHT22;65843;50.692;12.844;2023-06-22T02:15:21;18.80;80.70
76878;DHT22;65843;50.692;12.844;2023-06-22T02:16:22;18.80;80.70
76878;DHT22;65843;50.692;12.844;2023-06-22T02:17:23;18.80;80.70
76878;DHT22;65843;50.692;12.844;2023-06-22T02:18:24;18.80;80.70
76878;DHT22;65843;50.692;12.844;2023-06-22T02:19:26;18.80;80.70
76878;DHT22;65843;50.692;12.844;2023-06-22T02:20:27;18.80;80.50
76878;DHT22;65843;50.692;12.844;2023-06-22T02:21:28;18.80;80.30
76878;DHT22;65843;50.692;12.844;2023-06-22T02:22:29;18.80;80.10
76878;DHT22;65843;50.692;12.844;2023-06-22T02:23:30;18.80;80.00
76878;DHT22;65843;50.692;12.844;2023-06-22T02:24:33;18.80;80.00
76878;DHT22;65843;50.692;12.844;2023-06-22T02:25:34;18.80;79.90
76878;DHT22;65843;50.692;12.844;2023-06-22T02:26:36;18.80;79.90
76878;DHT22;65843;50.692;12.844;2023-06-22T02:27:38;18.80;80.00
76878;DHT22;65843;50.692;12.844;2023-06-22T02:28:41;18.80;80.00
76878;DHT22;65843;50.692;12.844;2023-06-22T02:29:41;18.80;80.00
76878;DHT22;65843;50.692;12.844;2023-06-22T02:30:42;18.80;80.00
76878;DHT22;65843;50.692;12.844;2023-06-22T02:31:43;18.80;80.10
76878;DHT22;65843;50.692;12.844;2023-06-22T02:32:44;18.70;80.10
76878;DHT22;65843;50.692;12.844;2023-06-22T02:33:45;18.70;80.20
76878;DHT22;65843;50.692;12.844;2023-06-22T02:34:46;18.80;80.20
76878;DHT22;65843;50.692;12.844;2023-06-22T02:35:50;18.70;80.30
76878;DHT22;65843;50.692;12.844;2023-06-22T02:36:51;18.80;80.30
76878;DHT22;65843;50.692;12.844;2023-06-22T02:37:51;18.70;80.30
76878;DHT22;65843;50.692;12.844;2023-06-22T02:38:53;18.80;80.30
76878;DHT22;65843;50.692;12.844;2023-06-22T02:39:54;18.80;80.40
76878;DHT22;65843;50.692;12.844;2023-06-22T02:40:55;18.80;80.50
76878;DHT22;65843;50.692;12.844;2023-06-22T02:41:56;18.80;80.40
76878;DHT22;65843;50.692;12.844;2023-06-22T02:42:57;18.80;80.40
76878;DHT22;65843;50.692;12.844;2023-06-22T02:44:03;18.70;80.40
76878;DHT22;65843;50.692;12.844;2023-06-22T02:45:04;18.80;80.30
76878;DHT22;65843;50.692;12.844;2023-06-22T02:46:05;18.80;80.40
76878;DHT22;65843;50.692;12.844;2023-06-22T02:47:06;18.70;80.40
76878;DHT22;65843;50.692;12.844;2023-06-22T02:48:07;18.70;80.40
76878;DHT22;65843;50.692;12.844;2023-06-22T02:49:07;18.80;80.40
76878;DHT22;65843;50.692;12.844;2023-06-22T02:50:09;18.80;80.40
76878;DHT22;65843;50.692;12.844;2023-06-22T02:51:10;18.70;80.30
76878;DHT22;65843;50.692;12.844;2023-06-22T02:52:10;18.70;80.30
76878;DHT22;65843;50.692;12.844;2023-06-22T02:53:11;18.70;80.20
76878;DHT22;65843;50.692;12.844;2023-06-22T02:54:12;18.70;80.00
76878;DHT22;65843;50.692;12.844;2023-06-22T02:55:13;18.70;79.70
76878;DHT22;65843;50.692;12.844;2023-06-22T02:56:14;18.70;79.70
76878;DHT22;65843;50.692;12.844;2023-06-22T02:57:16;18.70;79.60
76878;DHT22;65843;50.692;12.844;2023-06-22T02:58:17;18.70;79.50
76878;DHT22;65843;50.692;12.844;2023-06-22T02:59:18;18.70;79.40
76878;DHT22;65843;50.692;12.844;2023-06-22T03:00:23;18.70;79.50
76878;DHT22;65843;50.692;12.844;2023-06-22T03:01:25;18.70;79.50
76878;DHT22;65843;50.692;12.844;2023-06-22T03:02:28;18.70;79.50
76878;DHT22;65843;50.692;12.844;2023-06-22T03:03:29;18.70;79.50
76878;DHT22;65843;50.692;12.844;2023-06-22T03:04:30;18.70;79.60
76878;DHT22;65843;50.692;12.844;2023-06-22T03:05:32;18.70;79.70
76878;DHT22;65843;50.692;12.844;2023-06-22T03:06:33;18.70;79.70
76878;DHT22;65843;50.692;12.844;2023-06-22T03:07:34;18.70;79.80
76878;DHT22;65843;50.692;12.844;2023-06-22T03:08:35;18.70;79.80
76878;DHT22;65843;50.692;12.844;2023-06-22T03:09:36;18.70;79.90
76878;DHT22;65843;50.692;12.844;2023-06-22T03:10:37;18.70;79.90
76878;DHT22;65843;50.692;12.844;2023-06-22T03:11:37;18.70;79.90
76878;DHT22;65843;50.692;12.844;2023-06-22T03:12:38;18.70;80.00
76878;DHT22;65843;50.692;12.844;2023-06-22T03:13:39;18.70;80.00
76878;DHT22;65843;50.692;12.844;2023-06-22T03:14:40;18.70;80.00
76878;DHT22;65843;50.692;12.844;2023-06-22T03:15:41;18.70;80.00
76878;DHT22;65843;50.692;12.844;2023-06-22T03:16:42;18.70;80.00
76878;DHT22;65843;50.692;12.844;2023-06-22T03:17:43;18.70;79.80
76878;DHT22;65843;50.692;12.844;2023-06-22T03:18:44;18.70;79.80
76878;DHT22;65843;50.692;12.844;2023-06-22T03:19:45;18.70;79.70
76878;DHT22;65843;50.692;12.844;2023-06-22T03:20:46;18.70;79.70
76878;DHT22;65843;50.692;12.844;2023-06-22T03:21:47;18.70;79.70
76878;DHT22;65843;50.692;12.844;2023-06-22T03:22:47;18.70;79.70
76878;DHT22;65843;50.692;12.844;2023-06-22T03:23:49;18.70;79.70
76878;DHT22;65843;50.692;12.844;2023-06-22T03:24:50;18.70;79.70
76878;DHT22;65843;50.692;12.844;2023-06-22T03:25:51;18.70;79.70
76878;DHT22;65843;50.692;12.844;2023-06-22T03:26:52;18.70;79.60
76878;DHT22;65843;50.692;12.844;2023-06-22T03:27:52;18.70;79.40
76878;DHT22;65843;50.692;12.844;2023-06-22T03:28:53;18.70;79.40
76878;DHT22;65843;50.692;12.844;2023-06-22T03:29:56;18.70;79.20
76878;DHT22;65843;50.692;12.844;2023-06-22T03:30:57;18.70;79.10
76878;DHT22;65843;50.692;12.844;2023-06-22T03:31:58;18.70;78.90
76878;DHT22;65843;50.692;12.844;2023-06-22T03:32:59;18.60;79.00
76878;DHT22;65843;50.692;12.844;2023-06-22T03:34:00;18.60;79.10
76878;DHT22;65843;50.692;12.844;2023-06-22T03:35:01;18.60;79.10
76878;DHT22;65843;50.692;12.844;2023-06-22T03:36:03;18.60;79.10
76878;DHT22;65843;50.692;12.844;2023-06-22T03:37:04;18.60;79.10
76878;DHT22;65843;50.692;12.844;2023-06-22T03:38:04;18.70;79.20
76878;DHT22;65843;50.692;12.844;2023-06-22T03:39:05;18.60;79.30
76878;DHT22;65843;50.692;12.844;2023-06-22T03:40:06;18.60;79.40
76878;DHT22;65843;50.692;12.844;2023-06-22T03:41:08;18.60;79.40
76878;DHT22;65843;50.692;12.844;2023-06-22T03:42:08;18.60;79.40
76878;DHT22;65843;50.692;12.844;2023-06-22T03:43:09;18.60;79.40
76878;DHT22;65843;50.692;12.844;2023-06-22T03:44:10;18.60;79.40
76878;DHT22;65843;50.692;12.844;2023-06-22T03:45:13;18.60;79.60
76878;DHT22;65843;50.692;12.844;2023-06-22T03:46:14;18.60;79.60
76878;DHT22;65843;50.692;12.844;2023-06-22T03:47:14;18.60;79.50
76878;DHT22;65843;50.692;12.844;2023-06-22T03:48:15;18.60;79.50
76878;DHT22;65843;50.692;12.844;2023-06-22T03:49:16;18.70;79.50
76878;DHT22;65843;50.692;12.844;2023-06-22T03:50:17;18.70;79.50
76878;DHT22;65843;50.692;12.844;2023-06-22T03:51:20;18.70;79.50
76878;DHT22;65843;50.692;12.844;2023-06-22T03:52:21;18.70;79.50
76878;DHT22;65843;50.692;12.844;2023-06-22T03:53:22;18.60;79.50
76878;DHT22;65843;50.692;12.844;2023-06-22T03:54:23;18.60;79.50
76878;DHT22;65843;50.692;12.844;2023-06-22T03:55:24;18.70;79.50
76878;DHT22;65843;50.692;12.844;2023-06-22T03:56:25;18.60;79.40
76878;DHT22;65843;50.692;12.844;2023-06-22T03:57:26;18.60;79.60
76878;DHT22;65843;50.692;12.844;2023-06-22T03:58:27;18.60;79.60
76878;DHT22;65843;50.692;12.844;2023-06-22T03:59:33;18.60;79.50
76878;DHT22;65843;50.692;12.844;2023-06-22T04:00:34;18.60;79.50
76878;DHT22;65843;50.692;12.844;2023-06-22T04:01:35;18.60;79.20
76878;DHT22;65843;50.692;12.844;2023-06-22T04:02:37;18.60;79.10
76878;DHT22;65843;50.692;12.844;2023-06-22T04:03:38;18.60;79.00
76878;DHT22;65843;50.692;12.844;2023-06-22T04:04:39;18.60;79.10
76878;DHT22;65843;50.692;12.844;2023-06-22T04:05:40;18.60;79.00
76878;DHT22;65843;50.692;12.844;2023-06-22T04:06:41;18.60;79.00
76878;DHT22;65843;50.692;12.844;2023-06-22T04:07:42;18.60;79.00
76878;DHT22;65843;50.692;12.844;2023-06-22T04:08:44;18.60;79.10
76878;DHT22;65843;50.692;12.844;2023-06-22T04:09:48;18.60;79.00
76878;DHT22;65843;50.692;12.844;2023-06-22T04:10:49;18.70;79.10
76878;DHT22;65843;50.692;12.844;2023-06-22T04:11:50;18.60;79.10
76878;DHT22;65843;50.692;12.844;2023-06-22T04:12:51;18.60;79.20
76878;DHT22;65843;50.692;12.844;2023-06-22T04:13:52;18.70;79.10
76878;DHT22;65843;50.692;12.844;2023-06-22T04:14:53;18.60;79.20
76878;DHT22;65843;50.692;12.844;2023-06-22T04:15:54;18.60;79.20
76878;DHT22;65843;50.692;12.844;2023-06-22T04:16:55;18.60;79.30
76878;DHT22;65843;50.692;12.844;2023-06-22T04:17:55;18.70;79.40
76878;DHT22;65843;50.692;12.844;2023-06-22T04:18:56;18.60;79.40
76878;DHT22;65843;50.692;12.844;2023-06-22T04:19:57;18.60;79.50
76878;DHT22;65843;50.692;12.844;2023-06-22T04:20:58;18.60;79.40
76878;DHT22;65843;50.692;12.844;2023-06-22T04:21:59;18.60;79.30
76878;DHT22;65843;50.692;12.844;2023-06-22T04:23:00;18.60;79.30
76878;DHT22;65843;50.692;12.844;2023-06-22T04:24:01;18.60;79.30
76878;DHT22;65843;50.692;12.844;2023-06-22T04:25:02;18.60;79.30
76878;DHT22;65843;50.692;12.844;2023-06-22T04:26:02;18.60;79.30
76878;DHT22;65843;50.692;12.844;2023-06-22T04:27:03;18.60;79.40
76878;DHT22;65843;50.692;12.844;2023-06-22T04:28:04;18.60;79.40
76878;DHT22;65843;50.692;12.844;2023-06-22T04:29:05;18.60;79.40
76878;DHT22;65843;50.692;12.844;2023-06-22T04:30:07;18.60;79.40
76878;DHT22;65843;50.692;12.844;2023-06-22T04:31:08;18.60;79.50
76878;DHT22;65843;50.692;12.844;2023-06-22T04:32:09;18.60;79.50
76878;DHT22;65843;50.692;12.844;2023-06-22T04:33:10;18.60;79.40
76878;DHT22;65843;50.692;12.844;2023-06-22T04:34:10;18.60;79.30
76878;DHT22;65843;50.692;12.844;2023-06-22T04:35:11;18.60;79.40
76878;DHT22;65843;50.692;12.844;2023-06-22T04:36:12;18.60;79.50
76878;DHT22;65843;50.692;12.844;2023-06-22T04:37:14;18.60;79.40
76878;DHT22;65843;50.692;12.844;2023-06-22T04:38:16;18.60;79.30
76878;DHT22;65843;50.692;12.844;2023-06-22T04:39:17;18.70;79.20
76878;DHT22;65843;50.692;12.844;2023-06-22T04:40:19;18.60;79.10
76878;DHT22;65843;50.692;12.844;2023-06-22T04:41:20;18.60;79.10
76878;DHT22;65843;50.692;12.844;2023-06-22T04:42:27;18.60;79.00
76878;DHT22;65843;50.692;12.844;2023-06-22T04:43:28;18.60;79.20
76878;DHT22;65843;50.692;12.844;2023-06-22T04:44:31;18.60;79.40
76878;DHT22;65843;50.692;12.844;2023-06-22T04:45:33;18.60;79.40
76878;DHT22;65843;50.692;12.844;2023-06-22T04:46:34;18.60;79.40
76878;DHT22;65843;50.692;12.844;2023-06-22T04:47:38;18.60;79.40
76878;DHT22;65843;50.692;12.844;2023-06-22T04:48:40;18.60;79.40
76878;DHT22;65843;50.692;12.844;2023-06-22T04:49:40;18.60;79.40
76878;DHT22;65843;50.692;12.844;2023-06-22T04:50:43;18.70;79.40
76878;DHT22;65843;50.692;12.844;2023-06-22T04:51:45;18.60;79.40
76878;DHT22;65843;50.692;12.844;2023-06-22T04:52:45;18.70;79.50
76878;DHT22;65843;50.692;12.844;2023-06-22T04:53:46;18.60;79.70
76878;DHT22;65843;50.692;12.844;2023-06-22T04:54:47;18.60;79.70
76878;DHT22;65843;50.692;12.844;2023-06-22T04:55:56;18.70;79.70
76878;DHT22;65843;50.692;12.844;2023-06-22T04:56:57;18.70;79.80
76878;DHT22;65843;50.692;12.844;2023-06-22T04:57:57;18.70;79.80
76878;DHT22;65843;50.692;12.844;2023-06-22T04:59:05;18.70;79.80
76878;DHT22;65843;50.692;12.844;2023-06-22T05:00:06;18.70;79.90
76878;DHT22;65843;50.692;12.844;2023-06-22T05:01:13;18.70;79.80
76878;DHT22;65843;50.692;12.844;2023-06-22T05:02:14;18.70;80.00
76878;DHT22;65843;50.692;12.844;2023-06-22T05:03:15;18.70;80.10
76878;DHT22;65843;50.692;12.844;2023-06-22T05:04:19;18.70;80.10
76878;DHT22;65843;50.692;12.844;2023-06-22T05:05:20;18.70;80.10
76878;DHT22;65843;50.692;12.844;2023-06-22T05:06:23;18.70;80.10
76878;DHT22;65843;50.692;12.844;2023-06-22T05:07:27;18.70;80.10
76878;DHT22;65843;50.692;12.844;2023-06-22T05:08:28;18.70;80.10
76878;DHT22;65843;50.692;12.844;2023-06-22T05:09:29;18.70;80.10
76878;DHT22;65843;50.692;12.844;2023-06-22T05:10:30;18.70;80.00
76878;DHT22;65843;50.692;12.844;2023-06-22T05:11:31;18.70;79.80
76878;DHT22;65843;50.692;12.844;2023-06-22T05:12:32;18.70;79.60
76878;DHT22;65843;50.692;12.844;2023-06-22T05:13:33;18.70;79.50
76878;DHT22;65843;50.692;12.844;2023-06-22T05:14:33;18.70;79.50
76878;DHT22;65843;50.692;12.844;2023-06-22T05:15:34;18.70;79.40
76878;DHT22;65843;50.692;12.844;2023-06-22T05:16:41;18.70;79.40
76878;DHT22;65843;50.692;12.844;2023-06-22T05:17:42;18.70;79.40
76878;DHT22;65843;50.692;12.844;2023-06-22T05:18:45;18.70;79.50
76878;DHT22;65843;50.692;12.844;2023-06-22T05:19:46;18.70;79.60
76878;DHT22;65843;50.692;12.844;2023-06-22T05:20:50;18.70;79.80
76878;DHT22;65843;50.692;12.844;2023-06-22T05:21:50;18.70;79.90
76878;DHT22;65843;50.692;12.844;2023-06-22T05:22:51;18.70;80.20
76878;DHT22;65843;50.692;12.844;2023-06-22T05:23:52;18.70;80.40
76878;DHT22;65843;50.692;12.844;2023-06-22T05:24:53;18.70;80.40
76878;DHT22;65843;50.692;12.844;2023-06-22T05:25:54;18.70;80.40
76878;DHT22;65843;50.692;12.844;2023-06-22T05:26:58;18.70;80.40
76878;DHT22;65843;50.692;12.844;2023-06-22T05:27:59;18.70;80.40
76878;DHT22;65843;50.692;12.844;2023-06-22T05:29:00;18.70;80.30
76878;DHT22;65843;50.692;12.844;2023-06-22T05:30:01;18.70;80.30
76878;DHT22;65843;50.692;12.844;2023-06-22T05:31:02;18.70;80.30
76878;DHT22;65843;50.692;12.844;2023-06-22T05:32:03;18.70;80.40
76878;DHT22;65843;50.692;12.844;2023-06-22T05:33:04;18.70;80.30
76878;DHT22;65843;50.692;12.844;2023-06-22T05:34:05;18.70;80.30
76878;DHT22;65843;50.692;12.844;2023-06-22T05:35:06;18.70;80.40
76878;DHT22;65843;50.692;12.844;2023-06-22T05:36:07;18.70;80.20
76878;DHT22;65843;50.692;12.844;2023-06-22T05:37:08;18.70;80.20
76878;DHT22;65843;50.692;12.844;2023-06-22T05:38:10;18.70;80.00
76878;DHT22;65843;50.692;12.844;2023-06-22T05:39:14;18.70;79.80
76878;DHT22;65843;50.692;12.844;2023-06-22T05:40:15;18.70;79.80
76878;DHT22;65843;50.692;12.844;2023-06-22T05:41:16;18.70;80.00
76878;DHT22;65843;50.692;12.844;2023-06-22T05:42:17;18.70;80.00
76878;DHT22;65843;50.692;12.844;2023-06-22T05:43:18;18.70;79.90
76878;DHT22;65843;50.692;12.844;2023-06-22T05:44:19;18.70;79.70
76878;DHT22;65843;50.692;12.844;2023-06-22T05:45:20;18.70;79.70
76878;DHT22;65843;50.692;12.844;2023-06-22T05:46:21;18.70;79.50
76878;DHT22;65843;50.692;12.844;2023-06-22T05:47:22;18.70;79.40
76878;DHT22;65843;50.692;12.844;2023-06-22T05:48:23;18.70;79.10
76878;DHT22;65843;50.692;12.844;2023-06-22T05:49:24;18.70;79.70
76878;DHT22;65843;50.692;12.844;2023-06-22T05:50:30;18.70;80.30
76878;DHT22;65843;50.692;12.844;2023-06-22T05:51:31;18.70;80.90
76878;DHT22;65843;50.692;12.844;2023-06-22T05:52:32;18.70;81.20
76878;DHT22;65843;50.692;12.844;2023-06-22T05:53:32;18.80;81.20
76878;DHT22;65843;50.692;12.844;2023-06-22T05:54:33;18.80;81.60
76878;DHT22;65843;50.692;12.844;2023-06-22T05:55:34;18.80;81.90
76878;DHT22;65843;50.692;12.844;2023-06-22T05:56:35;18.80;81.50
76878;DHT22;65843;50.692;12.844;2023-06-22T05:57:36;18.80;81.20
76878;DHT22;65843;50.692;12.844;2023-06-22T05:58:37;18.80;80.40
76878;DHT22;65843;50.692;12.844;2023-06-22T05:59:37;18.80;80.80
76878;DHT22;65843;50.692;12.844;2023-06-22T06:00:39;18.80;81.40
76878;DHT22;65843;50.692;12.844;2023-06-22T06:01:40;18.80;81.70
76878;DHT22;65843;50.692;12.844;2023-06-22T06:02:41;18.90;82.10
76878;DHT22;65843;50.692;12.844;2023-06-22T06:03:44;18.90;82.20
76878;DHT22;65843;50.692;12.844;2023-06-22T06:04:45;18.90;81.90
76878;DHT22;65843;50.692;12.844;2023-06-22T06:05:46;18.90;81.50
76878;DHT22;65843;50.692;12.844;2023-06-22T06:06:46;18.90;80.60
76878;DHT22;65843;50.692;12.844;2023-06-22T06:07:47;18.90;80.30
76878;DHT22;65843;50.692;12.844;2023-06-22T06:08:48;18.90;80.60
76878;DHT22;65843;50.692;12.844;2023-06-22T06:09:49;18.90;79.00
76878;DHT22;65843;50.692;12.844;2023-06-22T06:10:50;18.90;79.30
76878;DHT22;65843;50.692;12.844;2023-06-22T06:11:53;18.90;79.30
76878;DHT22;65843;50.692;12.844;2023-06-22T06:12:54;18.80;79.10
76878;DHT22;65843;50.692;12.844;2023-06-22T06:13:55;18.80;79.20
76878;DHT22;65843;50.692;12.844;2023-06-22T06:14:56;18.80;79.50
76878;DHT22;65843;50.692;12.844;2023-06-22T06:15:57;18.80;79.50
76878;DHT22;65843;50.692;12.844;2023-06-22T06:16:58;18.70;79.20
76878;DHT22;65843;50.692;12.844;2023-06-22T06:17:59;18.80;79.90
76878;DHT22;65843;50.692;12.844;2023-06-22T06:19:00;18.80;79.90
76878;DHT22;65843;50.692;12.844;2023-06-22T06:20:01;18.80;80.30
76878;DHT22;65843;50.692;12.844;2023-06-22T06:21:02;18.80;80.30
76878;DHT22;65843;50.692;12.844;2023-06-22T06:22:03;18.80;80.00
76878;DHT22;65843;50.692;12.844;2023-06-22T06:23:03;18.80;80.20
76878;DHT22;65843;50.692;12.844;2023-06-22T06:24:04;18.80;80.30
76878;DHT22;65843;50.692;12.844;2023-06-22T06:25:05;18.80;80.70
76878;DHT22;65843;50.692;12.844;2023-06-22T06:26:06;18.80;81.10
76878;DHT22;65843;50.692;12.844;2023-06-22T06:27:07;18.90;81.20
76878;DHT22;65843;50.692;12.844;2023-06-22T06:28:09;18.90;81.10